createdAt,value
2022-12-28T00:02:18.808Z,3.00
2022-12-28T00:04:47.917Z,1.00
2022-12-28T00:07:16.313Z,2.00
2022-12-28T00:09:44.610Z,2.33
2022-12-28T00:12:12.862Z,2.00
2022-12-28T00:14:41.148Z,2.00
2022-12-28T00:17:09.422Z,2.00
2022-12-28T00:19:37.793Z,1.75
2022-12-28T00:22:05.994Z,2.75
2022-12-28T00:24:35.050Z,2.00
2022-12-28T00:27:03.382Z,2.50
2022-12-28T00:29:31.639Z,2.00
2022-12-28T00:31:59.914Z,2.00
2022-12-28T00:34:28.122Z,2.00
2022-12-28T00:37:08.254Z,2.50
2022-12-28T00:39:42.439Z,1.00
2022-12-28T00:42:11.003Z,1.75
2022-12-28T00:44:39.870Z,2.00
2022-12-28T00:47:08.174Z,1.00
2022-12-28T00:49:36.389Z,1.00
2022-12-28T00:52:04.870Z,1.00
2022-12-28T00:54:33.172Z,1.00
2022-12-28T00:57:01.426Z,2.00
2022-12-28T00:59:29.668Z,3.00
2022-12-28T01:01:58.006Z,2.33
2022-12-28T01:04:26.372Z,2.00
2022-12-28T01:06:54.622Z,3.00
2022-12-28T01:09:22.909Z,2.00
2022-12-28T01:11:51.152Z,1.00
2022-12-28T01:14:19.411Z,2.00
2022-12-28T01:16:47.673Z,2.00
2022-12-28T01:19:20.127Z,1.50
2022-12-28T01:21:49.944Z,1.00
2022-12-28T01:24:18.584Z,2.00
2022-12-28T01:26:46.808Z,2.00
2022-12-28T01:29:15.405Z,0.50
2022-12-28T01:31:43.706Z,1.33
2022-12-28T01:34:11.990Z,1.50
2022-12-28T01:36:40.418Z,2.00
2022-12-28T01:39:08.680Z,2.00
2022-12-28T01:41:39.804Z,2.50
2022-12-28T01:44:07.969Z,2.00
2022-12-28T01:46:45.395Z,1.67
2022-12-28T01:49:19.705Z,2.00
2022-12-28T01:51:56.274Z,2.00
2022-12-28T01:54:25.404Z,2.00
2022-12-28T01:56:53.732Z,1.00
2022-12-28T01:59:26.048Z,0.50
2022-12-28T02:01:54.534Z,1.00
2022-12-28T02:04:22.954Z,2.00
2022-12-28T02:06:51.191Z,1.00
2022-12-28T02:09:21.851Z,1.67
2022-12-28T02:11:50.379Z,2.00
2022-12-28T02:14:20.547Z,1.33
2022-12-28T02:16:48.847Z,1.00
2022-12-28T02:19:21.110Z,2.00
2022-12-28T02:21:55.385Z,1.00
2022-12-28T02:25:13.254Z,1.00
2022-12-28T02:28:12.671Z,2.00
2022-12-28T02:30:48.251Z,1.00
2022-12-28T02:33:26.853Z,1.00
2022-12-28T02:35:58.741Z,1.00
2022-12-28T02:38:34.300Z,1.00
2022-12-28T02:41:09.531Z,1.00
2022-12-28T02:43:37.715Z,1.00
2022-12-28T02:46:29.383Z,1.00
2022-12-28T02:49:15.958Z,1.00
2022-12-28T02:51:58.620Z,1.00
2022-12-28T02:54:58.720Z,1.00
2022-12-28T02:57:53.348Z,2.00
2022-12-28T03:00:26.314Z,1.00
2022-12-28T03:03:19.335Z,2.00
2022-12-28T03:06:14.629Z,1.00
2022-12-28T03:08:48.727Z,2.00
2022-12-28T03:11:19.659Z,1.00
2022-12-28T03:14:01.379Z,1.33
2022-12-28T03:16:54.912Z,2.00
2022-12-28T03:19:43.943Z,0.33
2022-12-28T03:22:31.140Z,1.00
2022-12-28T03:25:26.331Z,1.50
2022-12-28T03:28:13.029Z,2.00
2022-12-28T03:31:02.261Z,0.67
2022-12-28T03:33:30.562Z,1.00
2022-12-28T03:36:21.407Z,1.00
2022-12-28T03:39:01.175Z,1.00
2022-12-28T03:41:34.191Z,1.00
2022-12-28T03:44:09.789Z,1.00
2022-12-28T03:46:56.489Z,1.00
2022-12-28T03:49:24.975Z,1.50
2022-12-28T03:51:53.838Z,0.67
2022-12-28T03:54:22.130Z,1.75
2022-12-28T03:56:52.163Z,2.00
2022-12-28T03:59:20.555Z,1.00
2022-12-28T04:01:48.849Z,1.00
2022-12-28T04:04:17.135Z,1.00
2022-12-28T04:06:45.355Z,1.00
2022-12-28T04:09:13.638Z,1.00
2022-12-28T04:11:41.923Z,0.00
2022-12-28T04:14:11.098Z,0.00
2022-12-28T04:16:39.724Z,1.00
2022-12-28T04:19:08.012Z,1.00
2022-12-28T04:21:36.375Z,1.00
2022-12-28T04:24:04.866Z,1.50
2022-12-28T04:26:33.173Z,1.00
2022-12-28T04:29:02.395Z,0.50
2022-12-28T04:31:31.118Z,1.33
2022-12-28T04:34:00.127Z,1.00
2022-12-28T04:36:28.397Z,1.00
2022-12-28T04:38:56.623Z,1.33
2022-12-28T04:41:24.979Z,1.33
2022-12-28T04:43:55.337Z,1.00
2022-12-28T04:46:25.138Z,1.00
2022-12-28T04:48:53.801Z,1.00
2022-12-28T04:51:23.182Z,1.00
2022-12-28T04:53:51.922Z,1.00
2022-12-28T04:56:21.528Z,1.00
2022-12-28T04:58:53.403Z,1.00
2022-12-28T05:01:21.751Z,0.67
2022-12-28T05:03:55.804Z,1.00
2022-12-28T05:06:27.883Z,1.00
2022-12-28T05:08:57.624Z,1.00
2022-12-28T05:11:28.905Z,1.00
2022-12-28T05:13:57.670Z,1.00
2022-12-28T05:16:28.003Z,1.00
2022-12-28T05:18:57.799Z,1.00
2022-12-28T05:21:28.289Z,1.00
2022-12-28T05:23:57.311Z,1.00
2022-12-28T05:26:29.140Z,1.50
2022-12-28T05:28:58.874Z,1.00
2022-12-28T05:31:27.530Z,6.50
2022-12-28T05:33:55.878Z,8.00
2022-12-28T05:36:27.822Z,5.00
2022-12-28T05:38:57.018Z,3.00
2022-12-28T05:41:28.003Z,4.00
2022-12-28T05:43:58.266Z,4.00
2022-12-28T05:46:32.410Z,2.00
2022-12-28T05:49:01.873Z,3.50
2022-12-28T05:51:32.498Z,2.00
2022-12-28T05:54:04.541Z,3.00
2022-12-28T05:56:33.787Z,2.00
2022-12-28T05:59:04.822Z,2.00
2022-12-28T06:01:35.940Z,2.00
2022-12-28T06:04:07.136Z,0.00
2022-12-28T06:06:36.474Z,2.00
2022-12-28T06:09:05.173Z,2.00
2022-12-28T06:11:33.430Z,2.00
2022-12-28T06:14:04.047Z,2.00
2022-12-28T06:16:35.357Z,2.00
2022-12-28T06:19:06.247Z,2.00
2022-12-28T06:21:36.302Z,2.00
2022-12-28T06:24:05.953Z,1.50
2022-12-28T06:26:36.166Z,2.00
2022-12-28T06:29:04.980Z,1.50
2022-12-28T06:31:35.706Z,2.00
2022-12-28T06:34:06.421Z,2.50
2022-12-28T06:36:37.912Z,0.00
2022-12-28T06:39:08.562Z,1.00
2022-12-28T06:41:37.244Z,2.00
2022-12-28T06:44:10.550Z,2.00
2022-12-28T06:46:39.338Z,1.00
2022-12-28T06:49:08.210Z,1.00
2022-12-28T06:51:40.922Z,2.00
2022-12-28T06:54:10.444Z,2.00
2022-12-28T06:56:39.497Z,2.67
2022-12-28T06:59:08.550Z,1.50
2022-12-28T07:01:44.883Z,2.00
2022-12-28T07:04:14.732Z,1.00
2022-12-28T07:06:44.507Z,2.25
2022-12-28T07:09:22.732Z,2.00
2022-12-28T07:11:51.605Z,1.50
2022-12-28T07:14:19.796Z,1.75
2022-12-28T07:16:48.427Z,1.67
2022-12-28T07:19:16.667Z,2.00
2022-12-28T07:21:45.088Z,1.50
2022-12-28T07:24:13.357Z,2.33
2022-12-28T07:26:41.581Z,3.00
2022-12-28T07:29:09.752Z,4.67
2022-12-28T07:31:45.238Z,4.00
2022-12-28T07:34:16.423Z,5.00
2022-12-28T07:36:44.818Z,5.00
2022-12-28T07:39:13.081Z,5.50
2022-12-28T07:41:41.444Z,5.00
2022-12-28T07:44:10.017Z,4.25
2022-12-28T07:46:38.730Z,5.00
2022-12-28T07:49:07.964Z,7.00
2022-12-28T07:51:38.241Z,6.00
2022-12-28T07:54:06.921Z,5.33
2022-12-28T07:59:04.235Z,5.25
2022-12-28T08:01:34.729Z,4.50
2022-12-28T08:04:06.243Z,7.33
2022-12-28T08:06:37.564Z,4.50
2022-12-28T08:09:06.773Z,5.00
2022-12-28T08:11:37.893Z,7.00
2022-12-28T08:14:07.318Z,6.75
2022-12-28T08:16:38.725Z,6.00
2022-12-28T08:19:07.719Z,7.00
2022-12-28T08:21:39.119Z,6.33
2022-12-28T08:24:08.859Z,7.00
2022-12-28T08:26:39.408Z,6.67
2022-12-28T08:29:11.158Z,7.00
2022-12-28T08:31:41.915Z,6.00
2022-12-28T08:34:14.172Z,6.00
2022-12-28T08:36:42.921Z,6.00
2022-12-28T08:39:11.220Z,6.00
2022-12-28T08:41:39.505Z,7.00
2022-12-28T08:44:07.838Z,4.00
2022-12-28T08:46:37.079Z,7.00
2022-12-28T08:49:06.030Z,7.00
2022-12-28T08:51:37.028Z,5.00
2022-12-28T08:54:05.734Z,6.00
2022-12-28T08:56:36.771Z,5.00
2022-12-28T08:59:05.735Z,5.00
2022-12-28T09:01:43.086Z,5.00
2022-12-28T09:04:15.308Z,5.33
2022-12-28T09:06:43.684Z,7.00
2022-12-28T09:09:14.425Z,5.50
2022-12-28T09:11:43.923Z,5.50
2022-12-28T09:14:20.465Z,5.00
2022-12-28T09:16:52.767Z,4.50
2022-12-28T09:19:21.740Z,5.00
2022-12-28T09:21:52.849Z,5.00
2022-12-28T09:24:22.393Z,6.00
2022-12-28T09:26:53.170Z,3.50
2022-12-28T09:29:21.795Z,6.00
2022-12-28T09:31:50.050Z,4.33
2022-12-28T09:37:08.118Z,5.50
2022-12-28T09:39:36.759Z,6.00
2022-12-28T09:42:25.613Z,4.00
2022-12-28T09:45:04.400Z,5.00
2022-12-28T09:47:47.574Z,5.50
2022-12-28T09:50:19.090Z,5.00
2022-12-28T09:53:05.990Z,4.00
2022-12-28T09:55:37.049Z,5.00
2022-12-28T09:58:10.086Z,6.00
2022-12-28T10:00:47.360Z,3.50
2022-12-28T10:03:48.035Z,5.00
2022-12-28T10:06:18.782Z,3.00
2022-12-28T10:08:57.085Z,6.00
2022-12-28T10:11:28.961Z,6.00
2022-12-28T10:13:59.630Z,7.00
2022-12-28T10:16:33.077Z,6.00
2022-12-28T10:19:01.444Z,5.00
2022-12-28T10:21:33.081Z,4.00
2022-12-28T10:24:31.402Z,4.33
2022-12-28T10:26:59.445Z,4.25
2022-12-28T10:29:28.260Z,3.00
2022-12-28T10:32:09.728Z,5.00
2022-12-28T10:34:53.871Z,4.00
2022-12-28T10:37:22.579Z,6.00
2022-12-28T10:39:56.901Z,3.00
2022-12-28T10:42:29.067Z,5.00
2022-12-28T10:45:03.784Z,4.75
2022-12-28T10:47:36.160Z,5.33
2022-12-28T10:52:58.850Z,4.00
2022-12-28T10:55:30.286Z,4.33
2022-12-28T10:58:30.698Z,5.00
2022-12-28T11:01:02.903Z,4.50
2022-12-28T11:03:35.608Z,5.33
2022-12-28T11:06:15.129Z,6.00
2022-12-28T11:08:45.047Z,5.00
2022-12-28T11:11:23.532Z,3.00
2022-12-28T11:14:10.043Z,3.00
2022-12-28T11:16:38.823Z,4.00
2022-12-28T11:19:07.318Z,5.00
2022-12-28T11:21:36.853Z,3.50
2022-12-28T11:24:05.915Z,5.00
2022-12-28T11:26:34.376Z,4.00
2022-12-28T11:29:02.827Z,4.00
2022-12-28T11:31:43.726Z,4.00
2022-12-28T11:34:18.292Z,4.50
2022-12-28T11:36:47.179Z,4.00
2022-12-28T11:39:43.246Z,4.00
2022-12-28T11:42:38.472Z,3.00
2022-12-28T11:45:05.748Z,2.00
2022-12-28T11:47:35.670Z,4.00
2022-12-28T11:50:34.908Z,4.00
2022-12-28T11:53:10.501Z,3.67
2022-12-28T11:55:49.143Z,4.00
2022-12-28T11:58:41.905Z,3.33
2022-12-28T12:01:12.478Z,3.67
2022-12-28T12:03:59.140Z,4.00
2022-12-28T12:06:45.359Z,3.00
2022-12-28T12:09:22.674Z,4.00
2022-12-28T12:11:56.260Z,3.00
2022-12-28T12:14:30.134Z,4.00
2022-12-28T12:17:13.220Z,8.25
2022-12-28T12:19:48.302Z,5.50
2022-12-28T12:22:23.708Z,4.00
2022-12-28T12:25:03.292Z,5.00
2022-12-28T12:27:36.861Z,4.00
2022-12-28T12:30:08.127Z,2.00
2022-12-28T12:32:56.117Z,4.00
2022-12-28T12:35:28.077Z,5.00
2022-12-28T12:38:14.698Z,4.00
2022-12-28T12:40:58.327Z,4.50
2022-12-28T12:43:33.041Z,3.00
2022-12-28T12:46:27.063Z,3.00
2022-12-28T12:49:13.041Z,3.33
2022-12-28T12:51:56.864Z,4.00
2022-12-28T12:54:45.946Z,3.00
2022-12-28T12:57:19.050Z,4.00
2022-12-28T13:00:00.931Z,4.00
2022-12-28T13:02:49.138Z,4.00
2022-12-28T13:05:23.293Z,3.00
2022-12-28T13:07:53.324Z,5.00
2022-12-28T13:10:41.143Z,4.50
2022-12-28T13:13:18.771Z,4.00
2022-12-28T13:15:48.403Z,3.33
2022-12-28T13:18:43.964Z,3.67
2022-12-28T13:21:12.577Z,0.00
2022-12-28T13:23:45.307Z,5.00
2022-12-28T13:26:15.113Z,4.00
2022-12-28T13:28:52.539Z,4.00
2022-12-28T13:31:35.965Z,3.33
2022-12-28T13:34:07.063Z,3.50
2022-12-28T13:36:35.335Z,4.00
2022-12-28T13:39:11.344Z,3.00
2022-12-28T13:41:54.102Z,1.50
2022-12-28T13:44:35.619Z,3.00
2022-12-28T13:47:11.813Z,4.00
2022-12-28T13:49:54.915Z,3.00
2022-12-28T13:52:50.587Z,2.00
2022-12-28T13:55:22.906Z,3.00
2022-12-28T13:57:59.196Z,3.50
2022-12-28T14:00:29.616Z,3.75
2022-12-28T14:02:58.699Z,3.00
2022-12-28T14:05:29.396Z,3.00
2022-12-28T14:07:58.931Z,2.00
2022-12-28T14:10:28.123Z,6.50
2022-12-28T14:12:56.995Z,4.00
2022-12-28T14:15:25.597Z,4.00
2022-12-28T14:17:54.635Z,3.00
2022-12-28T14:20:23.241Z,1.00
2022-12-28T14:22:51.589Z,1.33
2022-12-28T14:25:24.508Z,4.33
2022-12-28T14:28:02.217Z,3.00
2022-12-28T14:30:39.701Z,3.00
2022-12-28T14:34:03.043Z,2.00
2022-12-28T14:36:39.124Z,3.00
2022-12-28T14:39:22.117Z,3.00
2022-12-28T14:41:50.698Z,4.00
2022-12-28T14:44:39.293Z,4.00
2022-12-28T14:47:45.839Z,3.50
2022-12-28T14:50:21.863Z,3.00
2022-12-28T14:52:51.277Z,1.50
2022-12-28T14:55:21.405Z,3.00
2022-12-28T14:57:51.926Z,2.33
2022-12-28T15:00:32.178Z,4.00
2022-12-28T15:03:20.911Z,2.00
2022-12-28T15:05:52.865Z,4.00
2022-12-28T15:08:23.200Z,3.25
2022-12-28T15:10:54.016Z,5.00
2022-12-28T15:13:23.052Z,1.50
2022-12-28T15:15:59.311Z,5.00
2022-12-28T15:18:29.557Z,4.67
2022-12-28T15:20:58.549Z,5.50
2022-12-28T15:23:26.917Z,7.50
2022-12-28T15:25:55.239Z,7.33
2022-12-28T15:28:26.596Z,7.67
2022-12-28T15:30:54.847Z,8.00
2022-12-28T15:33:23.068Z,7.67
2022-12-28T15:35:51.264Z,7.25
2022-12-28T15:38:19.422Z,8.00
2022-12-28T15:40:47.693Z,6.67
2022-12-28T15:43:15.966Z,8.00
2022-12-28T15:45:44.253Z,8.00
2022-12-28T15:48:12.546Z,10.00
2022-12-28T15:50:40.811Z,7.75
2022-12-28T15:53:09.105Z,8.00
2022-12-28T15:55:37.310Z,10.00
2022-12-28T15:58:05.632Z,11.00
2022-12-28T16:00:34.012Z,8.33
2022-12-28T16:03:02.585Z,8.00
2022-12-28T16:05:32.636Z,8.00
2022-12-28T16:08:00.961Z,9.00
2022-12-28T16:10:29.265Z,9.00
2022-12-28T16:12:57.681Z,13.50
2022-12-28T16:15:26.022Z,10.00
2022-12-28T16:17:57.515Z,13.00
2022-12-28T16:20:26.139Z,13.00
2022-12-28T16:22:54.413Z,10.00
2022-12-28T16:25:22.666Z,13.00
2022-12-28T16:27:50.904Z,15.50
2022-12-28T16:30:19.284Z,16.00
2022-12-28T16:32:48.592Z,17.67
2022-12-28T16:35:16.962Z,20.50
2022-12-28T16:37:45.230Z,18.67
2022-12-28T16:40:13.526Z,18.00
2022-12-28T16:42:46.138Z,20.00
2022-12-28T16:45:15.277Z,20.00
2022-12-28T16:47:45.015Z,20.00
2022-12-28T16:50:13.753Z,20.00
2022-12-28T16:52:42.096Z,19.00
2022-12-28T16:55:10.397Z,20.00
2022-12-28T16:57:38.707Z,22.00
2022-12-28T17:00:07.744Z,19.00
2022-12-28T17:02:36.251Z,21.00
2022-12-28T17:05:04.970Z,21.33
2022-12-28T17:07:33.343Z,23.00
2022-12-28T17:10:01.608Z,24.50
2022-12-28T17:12:29.833Z,23.00
2022-12-28T17:15:03.224Z,23.00
2022-12-28T17:17:33.255Z,21.00
2022-12-28T17:20:01.581Z,21.00
2022-12-28T17:22:31.221Z,22.33
2022-12-28T17:24:59.726Z,19.00
2022-12-28T17:27:28.003Z,20.00
2022-12-28T17:29:56.242Z,19.00
2022-12-28T17:32:24.783Z,17.00
2022-12-28T17:34:53.582Z,17.50
2022-12-28T17:37:21.890Z,18.00
2022-12-28T17:39:50.155Z,19.00
2022-12-28T17:42:18.520Z,19.00
2022-12-28T17:44:48.708Z,19.00
2022-12-28T17:47:16.994Z,19.00
2022-12-28T17:49:45.265Z,17.50
2022-12-28T17:52:17.541Z,18.50
2022-12-28T17:54:45.996Z,16.50
2022-12-28T17:57:14.952Z,17.50
2022-12-28T17:59:43.413Z,13.50
2022-12-28T18:02:12.982Z,18.50
2022-12-28T18:04:41.405Z,15.50
2022-12-28T18:07:09.750Z,12.00
2022-12-28T18:09:37.994Z,15.00
2022-12-28T18:12:06.472Z,18.33
2022-12-28T18:14:34.755Z,16.00
2022-12-28T18:17:03.075Z,13.50
2022-12-28T18:19:31.763Z,17.00
2022-12-28T18:22:00.081Z,16.50
2022-12-28T18:24:29.059Z,13.00
2022-12-28T18:26:57.370Z,16.00
2022-12-28T18:29:25.654Z,19.00
2022-12-28T18:31:53.926Z,15.67
2022-12-28T18:34:22.118Z,13.50
2022-12-28T18:36:50.344Z,17.00
2022-12-28T18:39:18.672Z,20.00
2022-12-28T18:41:46.916Z,19.50
2022-12-28T18:44:15.257Z,12.00
2022-12-28T18:46:43.528Z,15.67
2022-12-28T18:49:11.811Z,16.00
2022-12-28T18:51:40.028Z,12.50
2022-12-28T18:54:08.293Z,14.00
2022-12-28T18:56:36.451Z,15.00
2022-12-28T18:59:04.749Z,11.50
2022-12-28T19:02:05.334Z,15.00
2022-12-28T19:04:21.553Z,14.00
2022-12-28T19:06:50.128Z,12.50
2022-12-28T19:09:18.413Z,11.33
2022-12-28T19:11:46.761Z,12.00
2022-12-28T19:14:15.938Z,13.67
2022-12-28T19:16:45.241Z,12.00
2022-12-28T19:19:13.909Z,12.50
2022-12-28T19:21:42.920Z,13.00
2022-12-28T19:24:18.789Z,13.00
2022-12-28T19:26:47.830Z,13.33
2022-12-28T19:29:16.869Z,12.33
2022-12-28T19:31:45.405Z,10.00
2022-12-28T19:34:13.746Z,14.33
2022-12-28T19:36:42.022Z,17.00
2022-12-28T19:39:11.317Z,14.00
2022-12-28T19:41:40.123Z,15.00
2022-12-28T19:44:08.641Z,11.50
2022-12-28T19:46:37.214Z,12.00
2022-12-28T19:49:05.484Z,14.50
2022-12-28T19:51:34.277Z,12.00
2022-12-28T19:54:02.553Z,11.50
2022-12-28T19:56:31.106Z,12.67
2022-12-28T19:59:06.138Z,14.00
2022-12-28T20:01:37.388Z,13.33
2022-12-28T20:04:12.831Z,12.00
2022-12-28T20:06:44.149Z,12.00
2022-12-28T20:09:14.098Z,12.00
2022-12-28T20:11:43.166Z,10.67
2022-12-28T20:14:13.827Z,14.00
2022-12-28T20:16:42.981Z,13.00
2022-12-28T20:19:12.640Z,11.00
2022-12-28T20:21:42.132Z,11.00
2022-12-28T20:24:12.063Z,11.00
2022-12-28T20:26:40.540Z,13.00
2022-12-28T20:29:09.006Z,10.00
2022-12-28T20:31:37.389Z,11.33
2022-12-28T20:34:05.940Z,13.00
2022-12-28T20:36:34.537Z,10.67
2022-12-28T20:39:03.712Z,6.00
2022-12-28T20:41:51.703Z,9.50
2022-12-28T20:44:28.497Z,11.50
2022-12-28T20:46:57.520Z,10.00
2022-12-28T20:49:26.845Z,10.00
2022-12-28T20:51:55.430Z,11.00
2022-12-28T20:54:24.470Z,11.67
2022-12-28T20:56:55.956Z,11.33
2022-12-28T21:04:05.285Z,9.00
2022-12-28T21:06:34.225Z,11.00
2022-12-28T21:09:02.811Z,11.33
2022-12-28T21:11:31.707Z,9.00
2022-12-28T21:14:00.698Z,9.00
2022-12-28T21:16:29.266Z,12.00
2022-12-28T21:18:57.868Z,10.00
2022-12-28T21:21:26.342Z,9.00
2022-12-28T21:23:54.832Z,11.00
2022-12-28T21:26:23.512Z,8.00
2022-12-28T21:28:52.013Z,7.00
2022-12-28T21:31:20.923Z,8.50
2022-12-28T21:33:49.494Z,9.50
2022-12-28T21:36:19.385Z,9.00
2022-12-28T21:38:49.506Z,8.00
2022-12-28T21:41:43.192Z,9.00
2022-12-28T21:44:13.147Z,9.33
2022-12-28T21:46:42.446Z,9.50
2022-12-28T21:49:10.898Z,9.00
2022-12-28T21:51:41.000Z,9.00
2022-12-28T21:54:17.774Z,9.00
2022-12-28T21:56:49.328Z,10.00
2022-12-28T21:59:17.704Z,10.00
2022-12-28T22:02:04.640Z,7.50
2022-12-28T22:04:56.884Z,10.00
2022-12-28T22:07:29.335Z,5.00
2022-12-28T22:10:16.280Z,9.50
2022-12-28T22:12:44.941Z,8.00
2022-12-28T22:15:34.793Z,8.00
2022-12-28T22:21:09.881Z,7.33
2022-12-28T22:23:38.364Z,6.00
2022-12-28T22:26:07.361Z,6.75
2022-12-28T22:28:35.944Z,8.50
2022-12-28T22:31:08.097Z,8.50
2022-12-28T22:33:36.481Z,9.00
2022-12-28T22:37:21.671Z,6.00
2022-12-28T22:39:50.697Z,9.00
2022-12-28T22:42:19.239Z,5.50
2022-12-28T22:44:47.826Z,6.50
2022-12-28T22:47:16.202Z,7.00
2022-12-28T22:49:44.684Z,5.00
2022-12-28T22:52:13.368Z,9.00
2022-12-28T22:54:41.808Z,4.00
2022-12-28T22:57:10.342Z,6.00
2022-12-28T22:59:38.937Z,6.00
2022-12-28T23:02:07.663Z,6.00
2022-12-28T23:04:36.396Z,7.00
2022-12-28T23:07:04.878Z,6.00
2022-12-28T23:09:33.674Z,6.00
2022-12-28T23:12:02.046Z,7.00
2022-12-28T23:14:48.861Z,6.33
2022-12-28T23:17:17.744Z,6.00
2022-12-28T23:20:05.806Z,6.00
2022-12-28T23:23:07.958Z,6.00
2022-12-28T23:25:58.867Z,6.33
2022-12-28T23:28:27.349Z,5.00
2022-12-28T23:30:56.725Z,6.50
2022-12-28T23:33:25.240Z,4.00
2022-12-28T23:35:53.815Z,6.00
2022-12-28T23:38:22.093Z,7.00
2022-12-28T23:41:10.448Z,5.00
2022-12-28T23:43:39.131Z,7.00
2022-12-28T23:46:07.775Z,7.00
2022-12-28T23:48:36.501Z,5.00
2022-12-28T23:51:08.775Z,6.00
2022-12-28T23:53:37.271Z,6.67
2022-12-28T23:56:06.246Z,7.00
2022-12-28T23:58:34.736Z,6.50
